Depesza METAR lotniska Warszawa-Okęcie

METAR = EPWA 181600Z 13009KT 9999 -SHRA SCT046CB 17/06 Q1010 NOSIG

STACJA......... EPWA - Warszawa-Okęcie (WAW)
POMIAR......... Fri Apr 18, 18:00 CEST
TERAZ.......... Fri Apr 18, 18:12 CEST
CZAS........... 12 min temu
WIATR.......... południowo wschodni (SE) z prędkością 17 km/h
WIDZIALNOŚĆ.. powyżej 10 kilometrów
WARUNKI........ słaby: deszcz opad przelotny 
CHMURY......... zachmurzenie małe (3/8-4/8)
TEMPERATURA.... 17°C
T.PUNKTU ROSY.. 6°C
WILGOTNOŚĆ... 49%
CIŚNIENIE..... 1010 hPa
PROGNOZA....... bez nagłych zmian w ciągu 2h

Depesza METAR lotniska Kraków-Balice

METAR = EPKK 181530Z 04007KT 9999 SCT050 17/07 Q1008

STACJA......... EPKK - Kraków-Balice (KRK)
POMIAR......... Fri Apr 18, 17:30 CEST
TERAZ.......... Fri Apr 18, 18:12 CEST
CZAS........... 42 min temu
WIATR.......... północno-wschodni (NE) z prędkością 13 km/h
WIDZIALNOŚĆ.. powyżej 10 kilometrów
CHMURY......... zachmurzenie małe (3/8-4/8)
TEMPERATURA.... 17°C
T.PUNKTU ROSY.. 7°C
WILGOTNOŚĆ... 52%
CIŚNIENIE..... 1008 hPa

Depesza METAR lotniska Łódź-Lublinek

METAR = EPLL 181530Z VRB03KT CAVOK 16/04 Q1009

STACJA......... EPLL - Łódź-Lublinek (LCJ)
POMIAR......... Fri Apr 18, 17:30 CEST
TERAZ.......... Fri Apr 18, 18:12 CEST
CZAS........... 42 min temu
WIATR.......... zmienny z prędkością 6 km/h
WIDZIALNOŚĆ.. powyżej 10 kilometrów
CHMURY......... bezchmurne niebo
TEMPERATURA.... 16°C
T.PUNKTU ROSY.. 4°C
WILGOTNOŚĆ... 45%
CIŚNIENIE..... 1009 hPa

Depesza METAR lotniska Wrocław-Strachowice

METAR = EPWR 181530Z 32010KT CAVOK 11/06 Q1010

STACJA......... EPWR - Wrocław-Strachowice (WRO)
POMIAR......... Fri Apr 18, 17:30 CEST
TERAZ.......... Fri Apr 18, 18:12 CEST
CZAS........... 42 min temu
WIATR.......... północno zachodni (NW) z prędkością 19 km/h
WIDZIALNOŚĆ.. powyżej 10 kilometrów
CHMURY......... bezchmurne niebo
TEMPERATURA.... 11°C
T.PUNKTU ROSY.. 6°C
WILGOTNOŚĆ... 72%
CIŚNIENIE..... 1010 hPa

Depesza METAR lotniska Katowice-Pyrzowice

METAR = EPKT 181530Z 13003KT 080V170 9999 FEW047 17/01 Q1008

STACJA......... EPKT - Katowice-Pyrzowice (KTW)
POMIAR......... Fri Apr 18, 17:30 CEST
TERAZ.......... Fri Apr 18, 18:12 CEST
CZAS........... 42 min temu
WIATR.......... południowo wschodni (SE) z prędkością 6 km/h
WIDZIALNOŚĆ.. powyżej 10 kilometrów
CHMURY......... zachmurzenie niewielkie (1/8-2/8)
TEMPERATURA.... 17°C
T.PUNKTU ROSY.. 1°C
WILGOTNOŚĆ... 34%
CIŚNIENIE..... 1008 hPa

Depesza METAR lotniska Gdańsk

METAR = EPGD 181600Z 11012KT CAVOK 15/02 Q1011

STACJA......... EPGD - Gdańsk im. Lecha Wałęsy (GDN)
POMIAR......... Fri Apr 18, 18:00 CEST
TERAZ.......... Fri Apr 18, 18:12 CEST
CZAS........... 12 min temu
WIATR.......... wschodni południowo-wschodni (ESE) z prędkością 22 km/h
WIDZIALNOŚĆ.. powyżej 10 kilometrów
CHMURY......... bezchmurne niebo
TEMPERATURA.... 15°C
T.PUNKTU ROSY.. 2°C
WILGOTNOŚĆ... 42%
CIŚNIENIE..... 1011 hPa

Depesza METAR lotniska Poznań-Ławica

METAR = EPPO 181600Z 32005KT CAVOK 10/05 Q1011

STACJA......... EPPO - Poznań-Ławica (POZ)
POMIAR......... Fri Apr 18, 18:00 CEST
TERAZ.......... Fri Apr 18, 18:12 CEST
CZAS........... 12 min temu
WIATR.......... północno zachodni (NW) z prędkością 9 km/h
WIDZIALNOŚĆ.. powyżej 10 kilometrów
CHMURY......... bezchmurne niebo
TEMPERATURA.... 10°C
T.PUNKTU ROSY.. 5°C
WILGOTNOŚĆ... 71%
T.ODCZUWALNA... 9°C
CIŚNIENIE..... 1011 hPa

Depesza METAR lotniska Rzeszów-Jasionka

METAR = EPRZ 181600Z 10013KT CAVOK 19/09 Q1008

STACJA......... EPRZ - Rzeszów-Jasionka (RZE)
POMIAR......... Fri Apr 18, 18:00 CEST
TERAZ.......... Fri Apr 18, 18:12 CEST
CZAS........... 12 min temu
WIATR.......... wschodni (E) z prędkością 24 km/h
WIDZIALNOŚĆ.. powyżej 10 kilometrów
CHMURY......... bezchmurne niebo
TEMPERATURA.... 19°C
T.PUNKTU ROSY.. 9°C
WILGOTNOŚĆ... 52%
CIŚNIENIE..... 1008 hPa

Depesza METAR lotniska Szczecin-Goleniów

METAR = EPSC 181600Z 05005KT 9999 -SHRA BKN033CB 07/05 Q1011

STACJA......... EPSC - Szczecin-Goleniów (SZZ)
POMIAR......... Fri Apr 18, 18:00 CEST
TERAZ.......... Fri Apr 18, 18:12 CEST
CZAS........... 12 min temu
WIATR.......... północno-wschodni (NE) z prędkością 9 km/h
WIDZIALNOŚĆ.. powyżej 10 kilometrów
WARUNKI........ słaby: deszcz opad przelotny 
CHMURY......... zachmurzenie średnie (5/8-7/8)
TEMPERATURA.... 7°C
T.PUNKTU ROSY.. 5°C
WILGOTNOŚĆ... 87%
T.ODCZUWALNA... 6°C
CIŚNIENIE..... 1011 hPa

Depesza METAR lotniska Lublin-Świdnik

METAR = EPLB 221500Z VRB01KT 9999 FEW020 BKN080 26/23 Q1009 NOSIG

STACJA......... EPLB - Lublin-Świdnik (LUZ)
POMIAR......... Mon Aug 22, 17:00 CEST
TERAZ.......... Fri Apr 18, 18:12 CEST
CZAS........... 23281:12 godz temu
WIATR.......... zmienny z prędkością 2 km/h
WIDZIALNOŚĆ.. powyżej 10 kilometrów
CHMURY......... zachmurzenie średnie (5/8-7/8)
TEMPERATURA.... 26°C
T.PUNKTU ROSY.. 23°C
WILGOTNOŚĆ... 84%
CIŚNIENIE..... 1009 hPa
PROGNOZA....... bez nagłych zmian w ciągu 2h

Sprawdź też: prognoza pogody dla miast w Polsce!